Eek, Alaska
Current Conditions -  °F | °C
As of 11:56 PM on Wednesday 22 Oct 2014 (Local Time) from PANA Reporting Station
Clear Clear  
Wind Chill: 12°   Ceiling: Unl
Heat Index: 23°   Visibility: 10mi
Dew Point: 22°   Wind: 10mph
Humidity: 96%   Direction: 320°NW
Pressure: 29.93"   Gusts: NA
Location:  60.22°N, 162.03°W
Report Text: PANA 230756Z AUTO 32009KT 10SM CLR M05/M06 A2993 RMK AO2 SLP136 T10501056 FZRANO
Loading
Personal Weather Stations






























Interactive Weather Map
Tropical Storm Tracking
New forecast layout! Learn more

10-Day Weather Forecast

Advertisements
Track Severe Weather on mobile